createdAt,value
2018-03-03T00:00:58.921Z,37.75
2018-03-03T00:03:26.191Z,45.47
2018-03-03T00:05:53.413Z,35.15
2018-03-03T00:08:21.457Z,36.40
2018-03-03T00:10:48.014Z,27.80
2018-03-03T00:13:14.533Z,25.02
2018-03-03T00:15:41.080Z,25.33
2018-03-03T00:18:07.581Z,29.42
2018-03-03T00:20:38.084Z,22.42
2018-03-03T00:23:04.585Z,24.65
2018-03-03T00:25:31.078Z,21.33
2018-03-03T00:27:57.608Z,24.58
2018-03-03T00:30:24.121Z,27.15
2018-03-03T00:32:51.352Z,39.53
2018-03-03T00:35:17.878Z,28.83
2018-03-03T00:37:44.403Z,39.05
2018-03-03T00:40:10.928Z,33.60
2018-03-03T00:42:37.416Z,25.83
2018-03-03T00:45:04.868Z,45.20
2018-03-03T00:47:32.306Z,31.02
2018-03-03T00:49:58.817Z,30.35
2018-03-03T00:52:25.292Z,23.98
2018-03-03T00:54:51.812Z,30.95
2018-03-03T00:57:18.332Z,30.12
2018-03-03T00:59:44.944Z,34.35
2018-03-03T01:02:11.469Z,33.88
2018-03-03T01:04:38.001Z,38.15
2018-03-03T01:07:04.492Z,23.45
2018-03-03T01:09:31.038Z,22.50
2018-03-03T01:11:57.553Z,37.35
2018-03-03T01:14:24.080Z,34.33
2018-03-03T01:16:50.556Z,27.25
2018-03-03T01:19:17.802Z,41.40
2018-03-03T01:21:45.036Z,39.03
2018-03-03T01:24:11.541Z,27.17
2018-03-03T01:26:40.044Z,30.70
2018-03-03T01:29:07.345Z,30.95
2018-03-03T01:31:34.629Z,39.17
2018-03-03T01:34:01.133Z,29.60
2018-03-03T01:36:28.392Z,24.85
2018-03-03T01:38:57.729Z,24.50
2018-03-03T01:41:37.721Z,41.60
2018-03-03T01:44:04.256Z,29.48
2018-03-03T01:46:30.756Z,21.48
2018-03-03T01:48:57.313Z,23.83
2018-03-03T01:51:36.025Z,18.08
2018-03-03T01:54:02.584Z,26.85
2018-03-03T01:56:29.081Z,20.45
2018-03-03T01:58:59.497Z,18.08
2018-03-03T02:01:26.010Z,22.15
2018-03-03T02:03:53.294Z,23.00
2018-03-03T02:06:19.874Z,25.52
2018-03-03T02:08:46.463Z,28.87
2018-03-03T02:11:13.036Z,20.67
2018-03-03T02:13:39.529Z,15.77
2018-03-03T02:16:06.071Z,26.48
2018-03-03T02:18:32.614Z,22.17
2018-03-03T02:20:59.146Z,19.17
2018-03-03T02:23:25.697Z,21.30
2018-03-03T02:25:52.228Z,29.98
2018-03-03T02:28:18.752Z,50.55
2018-03-03T02:30:45.277Z,53.38
2018-03-03T02:33:12.552Z,44.08
2018-03-03T02:35:39.062Z,21.52
2018-03-03T02:38:05.563Z,46.97
2018-03-03T02:40:32.070Z,35.30
2018-03-03T02:42:58.614Z,25.50
2018-03-03T02:45:25.157Z,51.65
2018-03-03T02:47:51.695Z,43.15
2018-03-03T02:50:18.358Z,49.25
2018-03-03T02:52:44.935Z,51.53
2018-03-03T02:55:11.467Z,44.65
2018-03-03T02:57:37.981Z,48.65
2018-03-03T03:00:04.514Z,45.67
2018-03-03T03:02:31.816Z,54.08
2018-03-03T03:04:58.316Z,27.17
2018-03-03T03:07:25.615Z,25.00
2018-03-03T03:09:52.210Z,24.75
2018-03-03T03:12:18.793Z,45.15
2018-03-03T03:14:45.319Z,22.90
2018-03-03T03:17:12.630Z,22.15
2018-03-03T03:19:39.946Z,21.12
2018-03-03T03:22:06.502Z,27.62
2018-03-03T03:24:33.009Z,36.78
2018-03-03T03:26:59.569Z,17.33
2018-03-03T03:29:26.111Z,28.52
2018-03-03T03:31:52.662Z,27.15
2018-03-03T03:34:19.199Z,15.80
2018-03-03T03:36:46.491Z,49.50
2018-03-03T03:39:13.019Z,48.45
2018-03-03T03:41:43.410Z,48.47
2018-03-03T03:44:09.930Z,42.70
2018-03-03T03:46:36.475Z,37.90
2018-03-03T03:49:03.768Z,42.53
2018-03-03T03:51:30.344Z,47.20
2018-03-03T03:53:56.982Z,34.95
2018-03-03T03:56:24.507Z,41.20
2018-03-03T03:58:51.796Z,21.55
2018-03-03T04:01:18.361Z,26.55
2018-03-03T04:03:44.876Z,15.45
2018-03-03T04:06:11.395Z,17.87
2018-03-03T04:08:38.686Z,15.30
2018-03-03T04:11:05.998Z,14.20
2018-03-03T04:13:32.583Z,13.75
2018-03-03T04:16:00.012Z,28.58
2018-03-03T04:18:26.576Z,24.60
2018-03-03T04:20:53.843Z,19.62
2018-03-03T04:23:20.527Z,31.33
2018-03-03T04:25:47.074Z,21.52
2018-03-03T04:28:13.685Z,22.27
2018-03-03T04:30:40.233Z,18.80
2018-03-03T04:33:06.834Z,28.75
2018-03-03T04:35:34.272Z,28.77
2018-03-03T04:38:00.863Z,29.55
2018-03-03T04:40:27.408Z,31.00
2018-03-03T04:42:53.978Z,27.62
2018-03-03T04:45:20.575Z,49.65
2018-03-03T04:47:47.217Z,46.65
2018-03-03T04:50:13.774Z,30.00
2018-03-03T04:52:40.362Z,24.40
2018-03-03T04:55:06.930Z,22.33
2018-03-03T04:57:33.538Z,23.73
2018-03-03T05:03:20.673Z,31.25
2018-03-03T05:06:07.880Z,33.17
2018-03-03T05:08:35.433Z,35.95
2018-03-03T05:11:02.110Z,25.80
2018-03-03T05:13:35.357Z,35.20
2018-03-03T05:16:08.822Z,44.70
2018-03-03T05:21:45.562Z,29.90
2018-03-03T05:24:18.404Z,42.30
2018-03-03T05:27:01.036Z,32.85
2018-03-03T05:29:33.851Z,31.83
2018-03-03T05:32:06.442Z,29.85
2018-03-03T05:34:39.921Z,26.87
2018-03-03T05:37:16.438Z,30.48
2018-03-03T05:39:49.107Z,27.95
2018-03-03T05:45:25.663Z,36.60
2018-03-03T05:47:58.354Z,22.50
2018-03-03T05:50:30.981Z,29.00
2018-03-03T05:53:03.530Z,41.45
2018-03-03T05:55:36.049Z,32.03
2018-03-03T06:01:04.452Z,17.27
2018-03-03T06:03:37.138Z,22.17
2018-03-03T06:06:21.515Z,44.75
2018-03-03T06:09:03.821Z,34.00
2018-03-03T06:11:31.162Z,21.42
2018-03-03T06:13:58.531Z,29.95
2018-03-03T06:16:25.940Z,38.13
2018-03-03T06:18:53.211Z,24.42
2018-03-03T06:21:19.780Z,24.35
2018-03-03T06:23:48.434Z,37.72
2018-03-03T06:26:14.966Z,27.70
2018-03-03T06:28:41.521Z,23.70
2018-03-03T06:31:08.149Z,27.17
2018-03-03T06:33:34.703Z,29.73
2018-03-03T06:36:02.762Z,30.90
2018-03-03T06:38:29.330Z,36.47
2018-03-03T06:40:55.888Z,37.20
2018-03-03T06:43:23.182Z,29.65
2018-03-03T06:45:49.814Z,38.50
2018-03-03T06:48:16.356Z,42.05
2018-03-03T06:50:42.852Z,39.67
2018-03-03T06:53:10.141Z,30.92
2018-03-03T06:55:36.658Z,26.92
2018-03-03T06:58:03.223Z,27.27
2018-03-03T07:00:29.761Z,38.55
2018-03-03T07:02:56.334Z,33.33
2018-03-03T07:05:22.847Z,26.00
2018-03-03T07:07:49.773Z,24.87
2018-03-03T07:10:16.353Z,30.62
2018-03-03T07:12:42.987Z,26.48
2018-03-03T07:18:04.218Z,24.12
2018-03-03T07:20:30.734Z,24.48
2018-03-03T07:22:57.271Z,37.88
2018-03-03T07:25:24.738Z,33.05
2018-03-03T07:27:51.302Z,24.75
2018-03-03T07:30:18.543Z,26.55
2018-03-03T07:32:45.079Z,24.17
2018-03-03T07:35:11.618Z,28.70
2018-03-03T07:37:39.227Z,27.17
2018-03-03T07:40:05.760Z,23.80
2018-03-03T07:42:32.341Z,22.58
2018-03-03T07:44:59.646Z,28.95
2018-03-03T07:47:26.167Z,28.65
2018-03-03T07:49:52.822Z,22.98
2018-03-03T07:52:19.338Z,33.00
2018-03-03T07:54:50.872Z,29.27
2018-03-03T07:57:17.488Z,27.65
2018-03-03T07:59:44.042Z,23.05
2018-03-03T08:02:10.759Z,33.40
2018-03-03T08:04:37.381Z,27.83
2018-03-03T08:07:03.973Z,26.83
2018-03-03T08:09:30.923Z,31.37
2018-03-03T08:11:58.217Z,29.40
2018-03-03T08:14:24.807Z,32.20
2018-03-03T08:16:51.354Z,32.03
2018-03-03T08:19:17.972Z,27.95
2018-03-03T08:21:44.504Z,29.70
2018-03-03T08:24:11.078Z,31.17
2018-03-03T08:26:37.647Z,22.90
2018-03-03T08:29:04.232Z,28.67
2018-03-03T08:31:31.503Z,31.15
2018-03-03T08:33:58.809Z,31.75
2018-03-03T08:39:22.268Z,29.83
2018-03-03T08:41:48.684Z,29.65
2018-03-03T08:44:15.885Z,27.45
2018-03-03T08:46:42.301Z,24.27
2018-03-03T08:49:08.773Z,27.35
2018-03-03T08:51:35.223Z,25.30
2018-03-03T08:54:01.681Z,26.40
2018-03-03T08:56:28.115Z,30.00
2018-03-03T08:58:54.584Z,21.50
2018-03-03T09:01:21.060Z,22.15
2018-03-03T09:03:48.244Z,24.00
2018-03-03T09:06:14.704Z,21.17
2018-03-03T09:08:41.162Z,19.90
2018-03-03T09:11:07.644Z,27.13
2018-03-03T09:13:34.091Z,26.17
2018-03-03T09:16:00.559Z,22.17
2018-03-03T09:18:27.661Z,24.80
2018-03-03T09:20:54.135Z,26.67
2018-03-03T09:23:20.591Z,27.57
2018-03-03T09:25:47.012Z,19.43
2018-03-03T09:28:13.482Z,27.70
2018-03-03T09:30:57.283Z,25.43
2018-03-03T09:33:23.809Z,24.50
2018-03-03T09:35:51.603Z,26.17
2018-03-03T09:38:18.092Z,30.13
2018-03-03T09:40:45.174Z,24.80
2018-03-03T09:43:11.684Z,31.37
2018-03-03T09:45:38.156Z,25.23
2018-03-03T09:48:04.636Z,22.47
2018-03-03T09:50:31.320Z,30.87
2018-03-03T09:52:59.305Z,29.90
2018-03-03T09:55:26.679Z,25.50
2018-03-03T09:57:53.445Z,31.00
2018-03-03T10:00:19.915Z,26.07
2018-03-03T10:02:46.409Z,31.20
2018-03-03T10:05:13.572Z,28.60
2018-03-03T10:07:40.009Z,26.37
2018-03-03T10:10:06.496Z,27.57
2018-03-03T10:12:32.952Z,27.83
2018-03-03T10:14:59.529Z,34.17
2018-03-03T10:17:26.024Z,31.37
2018-03-03T10:19:53.208Z,29.27
2018-03-03T10:22:19.638Z,28.57
2018-03-03T10:24:46.065Z,28.50
2018-03-03T10:27:12.854Z,29.23
2018-03-03T10:29:39.276Z,34.10
2018-03-03T10:32:05.922Z,32.73
2018-03-03T10:34:32.422Z,28.63
2018-03-03T10:36:58.955Z,27.23
2018-03-03T10:39:25.453Z,27.93
2018-03-03T10:41:51.893Z,32.67
2018-03-03T10:44:18.410Z,30.20
2018-03-03T10:46:44.889Z,27.23
2018-03-03T10:49:11.356Z,30.33
2018-03-03T10:51:37.825Z,28.93
2018-03-03T10:54:06.028Z,27.00
2018-03-03T10:56:33.226Z,29.13
2018-03-03T10:59:03.764Z,30.37
2018-03-03T11:01:30.292Z,28.83
2018-03-03T11:03:57.574Z,26.57
2018-03-03T11:06:24.323Z,24.57
2018-03-03T11:08:51.139Z,28.60
2018-03-03T11:11:17.736Z,29.90
2018-03-03T11:13:48.180Z,30.50
2018-03-03T11:16:15.180Z,31.23
2018-03-03T11:18:41.932Z,26.80
2018-03-03T11:21:08.835Z,28.50
2018-03-03T11:23:35.547Z,26.50
2018-03-03T11:26:02.412Z,25.87
2018-03-03T11:28:29.977Z,24.63
2018-03-03T11:30:56.759Z,28.00
2018-03-03T11:33:24.176Z,24.20
2018-03-03T11:35:51.262Z,30.37
2018-03-03T11:38:18.916Z,29.13
2018-03-03T11:40:46.821Z,24.13
2018-03-03T11:43:13.556Z,24.60
2018-03-03T11:45:40.417Z,23.80
2018-03-03T11:48:11.832Z,28.43
2018-03-03T11:50:39.026Z,25.00
2018-03-03T11:53:05.441Z,23.30
2018-03-03T11:55:31.869Z,20.17
2018-03-03T11:57:59.020Z,19.03
2018-03-03T12:00:25.460Z,25.27
2018-03-03T12:02:52.632Z,19.80
2018-03-03T12:05:19.160Z,22.73
2018-03-03T12:07:46.261Z,21.40
2018-03-03T12:10:13.161Z,28.37
2018-03-03T12:12:39.972Z,31.03
2018-03-03T12:15:06.883Z,22.83
2018-03-03T12:17:33.379Z,28.80
2018-03-03T12:19:59.906Z,21.67
2018-03-03T12:22:26.816Z,25.23
2018-03-03T12:24:53.598Z,25.10
2018-03-03T12:27:20.390Z,20.13
2018-03-03T12:29:46.949Z,22.20
2018-03-03T12:32:13.809Z,25.53
2018-03-03T12:34:41.060Z,22.47
2018-03-03T12:37:08.860Z,26.10
2018-03-03T12:39:36.568Z,22.97
2018-03-03T12:42:03.500Z,21.73
2018-03-03T12:44:29.992Z,26.67
2018-03-03T12:46:56.474Z,26.40
2018-03-03T12:49:23.902Z,28.13
2018-03-03T12:51:58.885Z,26.57
2018-03-03T12:54:25.987Z,31.43
2018-03-03T12:57:02.976Z,28.27
2018-03-03T12:59:30.343Z,25.33
2018-03-03T13:01:57.476Z,30.03
2018-03-03T13:04:24.219Z,27.33
2018-03-03T13:06:51.318Z,32.13
2018-03-03T13:09:18.366Z,29.60
2018-03-03T13:11:46.532Z,33.17
2018-03-03T13:14:14.025Z,29.37
2018-03-03T13:16:41.083Z,27.37
2018-03-03T13:19:09.354Z,29.87
2018-03-03T13:21:42.915Z,35.53
2018-03-03T13:24:10.037Z,28.97
2018-03-03T13:26:45.790Z,24.70
2018-03-03T13:29:12.912Z,30.17
2018-03-03T13:31:39.612Z,26.03
2018-03-03T13:34:06.259Z,29.27
2018-03-03T13:36:32.978Z,26.93
2018-03-03T13:38:59.768Z,29.03
2018-03-03T13:41:26.420Z,25.90
2018-03-03T13:43:54.005Z,29.53
2018-03-03T13:46:20.756Z,25.67
2018-03-03T13:48:47.719Z,23.80
2018-03-03T13:51:14.343Z,29.53
2018-03-03T13:53:41.218Z,22.47
2018-03-03T13:56:07.910Z,25.50
2018-03-03T13:58:34.769Z,30.57
2018-03-03T14:01:01.588Z,27.97
2018-03-03T14:03:28.313Z,21.00
2018-03-03T14:05:55.049Z,19.43
2018-03-03T14:08:21.740Z,27.40
2018-03-03T14:10:49.275Z,27.30
2018-03-03T14:13:16.036Z,30.37
2018-03-03T14:15:42.702Z,30.93
2018-03-03T14:18:09.949Z,28.37
2018-03-03T14:20:36.543Z,30.40
2018-03-03T14:23:03.084Z,28.53
2018-03-03T14:25:29.601Z,25.40
2018-03-03T14:27:56.009Z,24.40
2018-03-03T14:30:23.227Z,27.50
2018-03-03T14:32:49.655Z,23.17
2018-03-03T14:35:16.142Z,21.07
2018-03-03T14:37:43.321Z,31.83
2018-03-03T14:40:09.762Z,27.93
2018-03-03T14:42:36.296Z,28.13
2018-03-03T14:45:02.797Z,31.33
2018-03-03T14:47:30.002Z,22.87
2018-03-03T14:49:57.258Z,24.47
2018-03-03T14:52:25.253Z,26.07
2018-03-03T14:54:51.731Z,29.00
2018-03-03T14:57:18.252Z,26.60
2018-03-03T14:59:45.571Z,25.33
2018-03-03T15:02:12.079Z,27.97
2018-03-03T15:04:38.544Z,30.70
2018-03-03T15:07:05.153Z,25.80
2018-03-03T15:09:31.704Z,28.33
2018-03-03T15:11:58.204Z,23.27
2018-03-03T15:14:24.644Z,18.73
2018-03-03T15:16:51.124Z,37.27
2018-03-03T15:19:17.536Z,28.03
2018-03-03T15:21:45.464Z,31.77
2018-03-03T15:24:11.907Z,27.90
2018-03-03T15:26:38.316Z,29.57
2018-03-03T15:29:04.780Z,32.53
2018-03-03T15:31:31.171Z,30.87
2018-03-03T15:33:58.365Z,33.03
2018-03-03T15:36:24.774Z,33.07
2018-03-03T15:38:51.217Z,32.00
2018-03-03T15:41:17.635Z,33.63
2018-03-03T15:43:44.841Z,31.40
2018-03-03T15:46:11.309Z,33.87
2018-03-03T15:48:38.490Z,29.57
2018-03-03T15:51:05.200Z,38.57
2018-03-03T15:53:32.539Z,33.17
2018-03-03T15:55:59.031Z,33.07
2018-03-03T15:58:26.298Z,31.30
2018-03-03T16:00:52.726Z,27.37
2018-03-03T16:03:19.141Z,19.17
2018-03-03T16:05:46.357Z,30.17
2018-03-03T16:08:12.778Z,24.13
2018-03-03T16:10:39.237Z,30.40
2018-03-03T16:13:05.736Z,28.73
2018-03-03T16:15:32.204Z,24.93
2018-03-03T16:17:59.379Z,28.67
2018-03-03T16:20:25.865Z,31.00
2018-03-03T16:22:53.804Z,28.90
2018-03-03T16:25:21.216Z,29.03
2018-03-03T16:27:47.654Z,31.03
2018-03-03T16:30:14.072Z,27.93
2018-03-03T16:32:40.492Z,27.20
2018-03-03T16:35:06.928Z,28.57
2018-03-03T16:37:33.335Z,25.57
2018-03-03T16:39:59.774Z,28.67
2018-03-03T16:42:26.208Z,27.73
2018-03-03T16:44:52.720Z,25.50
2018-03-03T16:47:19.156Z,30.40
2018-03-03T16:49:45.654Z,28.47
2018-03-03T16:52:12.828Z,30.53
2018-03-03T16:54:40.020Z,27.43
2018-03-03T16:57:06.443Z,29.33
2018-03-03T16:59:32.908Z,29.63
2018-03-03T17:01:59.322Z,29.23
2018-03-03T17:04:25.769Z,30.10
2018-03-03T17:06:52.243Z,28.47
2018-03-03T17:09:18.661Z,29.40
2018-03-03T17:11:49.794Z,29.13
2018-03-03T17:14:16.487Z,26.73
2018-03-03T17:16:42.914Z,28.97
2018-03-03T17:19:10.018Z,32.67
2018-03-03T17:21:36.544Z,44.87
2018-03-03T17:24:02.952Z,50.67
2018-03-03T17:26:29.344Z,53.57
2018-03-03T17:28:56.518Z,41.67
2018-03-03T17:31:22.934Z,40.87
2018-03-03T17:33:49.427Z,35.50
2018-03-03T17:36:15.890Z,28.30
2018-03-03T17:38:43.131Z,31.50
2018-03-03T17:41:09.586Z,31.77
2018-03-03T17:43:36.025Z,29.08
2018-03-03T17:46:03.194Z,15.68
2018-03-03T17:48:30.357Z,24.80
2018-03-03T17:50:57.540Z,23.53
2018-03-03T17:53:23.951Z,28.33
2018-03-03T17:55:50.388Z,25.87
2018-03-03T17:58:16.805Z,22.97
2018-03-03T18:00:43.301Z,25.07
2018-03-03T18:03:09.728Z,24.33
2018-03-03T18:05:36.162Z,21.03
2018-03-03T18:08:02.696Z,20.87
2018-03-03T18:10:29.900Z,18.87
2018-03-03T18:12:57.061Z,16.50
2018-03-03T18:15:27.427Z,16.90
2018-03-03T18:17:53.925Z,14.67
2018-03-03T18:20:22.444Z,23.33
2018-03-03T18:22:48.853Z,19.65
2018-03-03T18:25:15.292Z,19.43
2018-03-03T18:27:41.723Z,14.67
2018-03-03T18:30:08.200Z,19.30
2018-03-03T18:32:34.617Z,15.40
2018-03-03T18:35:01.042Z,22.10
2018-03-03T18:37:27.521Z,18.63
2018-03-03T18:39:55.716Z,16.93
2018-03-03T18:42:22.933Z,18.13
2018-03-03T18:44:49.351Z,14.37
2018-03-03T18:47:15.782Z,19.90
2018-03-03T18:49:42.180Z,17.33
2018-03-03T18:52:08.620Z,16.58
2018-03-03T18:54:35.073Z,15.40
2018-03-03T18:57:01.502Z,18.47
2018-03-03T18:59:27.934Z,21.17
2018-03-03T19:01:54.367Z,19.75
2018-03-03T19:04:20.756Z,19.20
2018-03-03T19:06:47.956Z,16.27
2018-03-03T19:09:14.405Z,21.57
2018-03-03T19:11:40.854Z,23.15
2018-03-03T19:14:08.026Z,22.40
2018-03-03T19:16:34.492Z,15.85
2018-03-03T19:19:00.931Z,11.97
2018-03-03T19:21:27.397Z,17.93
2018-03-03T19:23:53.825Z,19.43
2018-03-03T19:26:20.249Z,22.87
2018-03-03T19:28:46.704Z,21.80
2018-03-03T19:31:13.157Z,24.55
2018-03-03T19:33:39.561Z,24.27
2018-03-03T19:36:05.957Z,23.50
2018-03-03T19:38:32.385Z,24.57
2018-03-03T19:40:58.817Z,16.70
2018-03-03T19:43:26.162Z,20.33
2018-03-03T19:45:53.315Z,24.12
2018-03-03T19:48:19.742Z,18.57
2018-03-03T19:50:46.916Z,22.45
2018-03-03T19:53:13.352Z,25.40
2018-03-03T19:55:39.861Z,25.13
2018-03-03T19:58:07.039Z,27.03
2018-03-03T20:00:33.596Z,19.20
2018-03-03T20:03:00.069Z,20.03
2018-03-03T20:05:26.474Z,11.67
2018-03-03T20:07:53.913Z,15.70
2018-03-03T20:10:20.343Z,18.02
2018-03-03T20:12:46.817Z,13.62
2018-03-03T20:15:13.256Z,16.47
2018-03-03T20:17:39.697Z,11.70
2018-03-03T20:20:06.219Z,11.20
2018-03-03T20:22:32.672Z,23.65
2018-03-03T20:24:59.093Z,16.30
2018-03-03T20:27:25.520Z,16.13
2018-03-03T20:29:51.949Z,12.83
2018-03-03T20:32:18.398Z,20.87
2018-03-03T20:34:44.861Z,28.27
2018-03-03T20:37:11.260Z,23.57
2018-03-03T20:39:37.712Z,18.57
2018-03-03T20:42:04.120Z,14.93
2018-03-03T20:44:30.543Z,17.57
2018-03-03T20:46:56.976Z,30.85
2018-03-03T20:49:23.393Z,17.83
2018-03-03T20:51:49.816Z,27.57
2018-03-03T20:54:16.253Z,16.87
2018-03-03T20:56:42.694Z,29.60
2018-03-03T20:59:09.132Z,32.67
2018-03-03T21:01:35.582Z,21.33
2018-03-03T21:04:05.896Z,30.80
2018-03-03T21:06:32.310Z,19.17
2018-03-03T21:08:58.761Z,20.75
2018-03-03T21:11:27.035Z,27.35
2018-03-03T21:13:53.509Z,24.35
2018-03-03T21:16:19.949Z,17.85
2018-03-03T21:18:46.409Z,14.35
2018-03-03T21:21:13.589Z,9.77
2018-03-03T21:23:40.015Z,11.03
2018-03-03T21:26:06.473Z,39.30
2018-03-03T21:28:32.896Z,28.17
2018-03-03T21:30:59.350Z,29.40
2018-03-03T21:33:25.769Z,21.12
2018-03-03T21:35:52.209Z,31.27
2018-03-03T21:38:18.617Z,37.77
2018-03-03T21:40:45.148Z,32.75
2018-03-03T21:43:11.587Z,42.17
2018-03-03T21:45:38.001Z,32.85
2018-03-03T21:48:05.160Z,32.88
2018-03-03T21:50:32.325Z,31.80
2018-03-03T21:52:58.744Z,41.10
2018-03-03T21:55:25.935Z,39.63
2018-03-03T21:57:52.540Z,37.10
2018-03-03T22:00:19.742Z,20.60
2018-03-03T22:02:46.165Z,38.77
2018-03-03T22:05:12.580Z,36.50
2018-03-03T22:07:38.995Z,29.87
2018-03-03T22:10:05.474Z,29.40
2018-03-03T22:12:32.690Z,37.85
2018-03-03T22:14:59.185Z,44.17
2018-03-03T22:17:26.413Z,35.92
2018-03-03T22:19:52.845Z,30.75
2018-03-03T22:22:19.281Z,24.77
2018-03-03T22:24:45.725Z,39.35
2018-03-03T22:27:13.000Z,45.17
2018-03-03T22:29:39.409Z,40.50
2018-03-03T22:32:05.853Z,31.10
2018-03-03T22:34:32.296Z,29.67
2018-03-03T22:36:58.731Z,42.42
2018-03-03T22:39:25.181Z,35.50
2018-03-03T22:41:51.596Z,41.00
2018-03-03T22:44:18.028Z,17.10
2018-03-03T22:46:44.493Z,23.27
2018-03-03T22:49:10.901Z,30.37
2018-03-03T22:51:37.316Z,36.97
2018-03-03T22:54:03.746Z,33.50
2018-03-03T22:56:30.183Z,46.03
2018-03-03T22:58:57.381Z,36.38
2018-03-03T23:01:23.841Z,42.03
2018-03-03T23:03:54.123Z,42.03
2018-03-03T23:06:20.552Z,48.80
2018-03-03T23:08:46.976Z,47.25
2018-03-03T23:11:14.514Z,49.00
2018-03-03T23:13:40.942Z,46.47
2018-03-03T23:16:07.381Z,44.73
2018-03-03T23:18:33.855Z,44.60
2018-03-03T23:21:01.017Z,48.37
2018-03-03T23:23:28.194Z,44.03
2018-03-03T23:25:54.688Z,42.92
2018-03-03T23:28:21.884Z,42.72
2018-03-03T23:30:48.354Z,46.37
2018-03-03T23:33:18.529Z,43.72
2018-03-03T23:35:44.950Z,48.30
2018-03-03T23:38:12.117Z,43.90
2018-03-03T23:40:38.595Z,38.00
2018-03-03T23:43:05.021Z,45.00
2018-03-03T23:45:31.566Z,42.90
2018-03-03T23:47:58.813Z,45.28
2018-03-03T23:50:25.216Z,48.35
2018-03-03T23:52:51.657Z,46.33
2018-03-03T23:55:18.080Z,45.95
2018-03-03T23:57:44.504Z,43.97
